createdAt,value
2022-11-09T00:02:05.664Z,99954.91
2022-11-09T00:04:38.732Z,99962.31
2022-11-09T00:07:08.152Z,99951.78
2022-11-09T00:09:38.064Z,99953.47
2022-11-09T00:12:06.007Z,99945.44
2022-11-09T00:14:32.455Z,99941.97
2022-11-09T00:16:58.921Z,99946.28
2022-11-09T00:19:26.043Z,99943.19
2022-11-09T00:21:53.161Z,99954.13
2022-11-09T00:24:19.583Z,99942.53
2022-11-09T00:26:46.082Z,99942.16
2022-11-09T00:29:12.545Z,99930.69
2022-11-09T00:31:39.006Z,99931.31
2022-11-09T00:34:05.439Z,99938.03
2022-11-09T00:36:31.835Z,99927.44
2022-11-09T00:39:00.610Z,99919.59
2022-11-09T00:41:27.735Z,99917.97
2022-11-09T00:43:54.373Z,99907.47
2022-11-09T00:46:21.615Z,99917.81
2022-11-09T00:48:48.247Z,99921.56
2022-11-09T00:51:14.759Z,99924.19
2022-11-09T00:53:42.587Z,99935.00
2022-11-09T00:56:12.079Z,99926.81
2022-11-09T00:58:39.381Z,99928.50
2022-11-09T01:01:14.411Z,99925.63
2022-11-09T01:03:41.166Z,99930.00
2022-11-09T01:06:08.333Z,99931.00
2022-11-09T01:08:36.104Z,99929.16
2022-11-09T01:11:07.301Z,99927.50
2022-11-09T01:13:34.554Z,99917.78
2022-11-09T01:16:06.224Z,99921.06
2022-11-09T01:18:33.099Z,99918.66
2022-11-09T01:20:59.503Z,99921.81
2022-11-09T01:23:25.961Z,99939.13
2022-11-09T01:25:59.458Z,99917.75
2022-11-09T01:28:26.106Z,99934.28
2022-11-09T01:30:52.880Z,99923.25
2022-11-09T01:33:19.580Z,99940.47
2022-11-09T01:35:46.314Z,99927.53
2022-11-09T01:38:12.783Z,99917.34
2022-11-09T01:40:40.292Z,99930.09
2022-11-09T01:43:19.182Z,99922.78
2022-11-09T01:45:50.038Z,99913.28
2022-11-09T01:48:37.581Z,99921.22
2022-11-09T01:51:37.615Z,99921.75
2022-11-09T01:54:12.900Z,99914.88
2022-11-09T01:56:40.060Z,99917.84
2022-11-09T01:59:11.739Z,99917.53
2022-11-09T02:01:38.437Z,99922.47
2022-11-09T02:04:13.693Z,99925.28
2022-11-09T02:06:40.699Z,99920.50
2022-11-09T02:09:12.594Z,99921.13
2022-11-09T02:11:39.190Z,99912.56
2022-11-09T02:14:07.260Z,99913.63
2022-11-09T02:16:34.012Z,99924.88
2022-11-09T02:19:01.130Z,99931.94
2022-11-09T02:21:30.879Z,99923.00
2022-11-09T02:23:57.906Z,99917.91
2022-11-09T02:26:49.498Z,99926.47
2022-11-09T02:29:20.657Z,99928.16
2022-11-09T02:31:52.397Z,99932.13
2022-11-09T02:34:20.299Z,99928.31
2022-11-09T02:36:47.381Z,99926.66
2022-11-09T02:39:16.933Z,99923.31
2022-11-09T02:41:48.372Z,99920.91
2022-11-09T02:44:16.585Z,99921.63
2022-11-09T02:46:43.144Z,99913.28
2022-11-09T02:49:09.573Z,99922.53
2022-11-09T02:51:36.198Z,99917.81
2022-11-09T02:54:03.409Z,99921.25
2022-11-09T02:56:29.837Z,99923.97
2022-11-09T02:58:56.359Z,99922.94
2022-11-09T03:01:23.111Z,99917.84
2022-11-09T03:03:49.679Z,99919.16
2022-11-09T03:06:16.327Z,99921.69
2022-11-09T03:08:42.792Z,99922.91
2022-11-09T03:11:09.224Z,99922.13
2022-11-09T03:13:36.140Z,99917.94
2022-11-09T03:16:08.520Z,99924.50
2022-11-09T03:18:34.995Z,99927.56
2022-11-09T03:21:06.157Z,99926.75
2022-11-09T03:23:33.086Z,99927.06
2022-11-09T03:25:59.560Z,99920.19
2022-11-09T03:28:26.095Z,99917.84
2022-11-09T03:30:52.643Z,99919.84
2022-11-09T03:33:19.517Z,99897.13
2022-11-09T03:35:46.235Z,99904.56
2022-11-09T03:38:13.403Z,99914.88
2022-11-09T03:40:39.939Z,99911.75
2022-11-09T03:43:06.409Z,99913.25
2022-11-09T03:45:33.081Z,99895.91
2022-11-09T03:48:02.327Z,99899.78
2022-11-09T03:50:31.395Z,99887.34
2022-11-09T03:52:59.861Z,99898.28
2022-11-09T03:55:27.371Z,99894.00
2022-11-09T03:57:54.339Z,99889.38
2022-11-09T04:00:22.616Z,99891.19
2022-11-09T04:02:49.092Z,99886.41
2022-11-09T04:05:15.653Z,99891.34
2022-11-09T04:07:48.818Z,99874.75
2022-11-09T04:10:15.552Z,99878.19
2022-11-09T04:12:42.013Z,99881.56
2022-11-09T04:15:09.229Z,99873.44
2022-11-09T04:17:35.843Z,99859.19
2022-11-09T04:20:02.280Z,99874.22
2022-11-09T04:22:28.714Z,99889.91
2022-11-09T04:24:55.135Z,99887.50
2022-11-09T04:27:21.679Z,99883.03
2022-11-09T04:29:48.111Z,99883.34
2022-11-09T04:32:14.787Z,99884.63
2022-11-09T04:34:41.446Z,99898.38
2022-11-09T04:37:09.242Z,99889.38
2022-11-09T04:39:35.955Z,99885.56
2022-11-09T04:42:02.624Z,99889.16
2022-11-09T04:44:31.988Z,99894.94
2022-11-09T04:46:58.393Z,99903.16
2022-11-09T04:49:24.979Z,99909.28
2022-11-09T04:51:51.419Z,99907.72
2022-11-09T04:54:17.855Z,99908.91
2022-11-09T04:56:44.342Z,99901.25
2022-11-09T04:59:10.795Z,99901.97
2022-11-09T05:01:37.276Z,99914.50
2022-11-09T05:04:03.850Z,99904.25
2022-11-09T05:06:33.106Z,99913.28
2022-11-09T05:09:03.485Z,99907.63
2022-11-09T05:11:31.031Z,99903.81
2022-11-09T05:13:57.759Z,99903.66
2022-11-09T05:16:24.602Z,99905.13
2022-11-09T05:18:52.068Z,99906.28
2022-11-09T05:21:18.821Z,99908.03
2022-11-09T05:24:00.849Z,99904.09
2022-11-09T05:26:38.781Z,99901.44
2022-11-09T05:29:07.719Z,99908.88
2022-11-09T05:31:34.705Z,99905.34
2022-11-09T05:34:02.006Z,99906.28
2022-11-09T05:36:30.409Z,99902.78
2022-11-09T05:38:58.031Z,99904.44
2022-11-09T05:41:24.643Z,99905.34
2022-11-09T05:43:51.163Z,99908.75
2022-11-09T05:46:18.628Z,99903.00
2022-11-09T05:48:46.027Z,99907.94
2022-11-09T05:51:50.293Z,99916.50
2022-11-09T05:54:16.693Z,99917.69
2022-11-09T05:56:43.165Z,99921.63
2022-11-09T05:59:09.696Z,99928.09
2022-11-09T06:01:36.117Z,99936.38
2022-11-09T06:04:02.659Z,99935.31
2022-11-09T06:06:29.901Z,99932.53
2022-11-09T06:08:56.432Z,99941.53
2022-11-09T06:11:24.274Z,99942.34
2022-11-09T06:13:52.840Z,99949.19
2022-11-09T06:16:19.391Z,99948.59
2022-11-09T06:18:45.889Z,99951.06
2022-11-09T06:21:12.648Z,99954.75
2022-11-09T06:23:39.200Z,99956.94
2022-11-09T06:26:09.534Z,99951.38
2022-11-09T06:28:37.705Z,99957.31
2022-11-09T06:31:06.919Z,99964.69
2022-11-09T06:33:35.582Z,99967.97
2022-11-09T06:36:03.011Z,99975.78
2022-11-09T06:38:29.876Z,99979.19
2022-11-09T06:40:59.264Z,99988.59
2022-11-09T06:43:26.623Z,99976.03
2022-11-09T06:45:53.922Z,99983.81
2022-11-09T06:48:21.219Z,99972.25
2022-11-09T06:50:47.866Z,99975.38
2022-11-09T06:53:15.953Z,99971.97
2022-11-09T06:55:47.385Z,99966.91
2022-11-09T06:58:16.540Z,99975.31
2022-11-09T07:00:44.085Z,99970.13
2022-11-09T07:03:15.492Z,99967.75
2022-11-09T07:05:41.976Z,99970.69
2022-11-09T07:08:08.423Z,99975.63
2022-11-09T07:10:34.948Z,99980.72
2022-11-09T07:13:03.208Z,99979.75
2022-11-09T07:15:29.660Z,99984.97
2022-11-09T07:18:00.299Z,99979.75
2022-11-09T07:20:27.542Z,99983.50
2022-11-09T07:22:54.137Z,99984.03
2022-11-09T07:25:21.006Z,99982.06
2022-11-09T07:27:47.527Z,99996.72
2022-11-09T07:30:14.508Z,99989.28
2022-11-09T07:35:28.712Z,99991.84
2022-11-09T07:37:59.926Z,99990.16
2022-11-09T07:40:26.339Z,99996.34
2022-11-09T07:42:52.814Z,99996.75
2022-11-09T07:45:19.234Z,99998.00
2022-11-09T07:47:45.646Z,100002.78
2022-11-09T07:50:12.068Z,100016.16
2022-11-09T07:52:38.481Z,100007.53
2022-11-09T07:55:05.378Z,100004.53
2022-11-09T07:57:31.823Z,100011.84
2022-11-09T07:59:59.135Z,100007.88
2022-11-09T08:02:25.608Z,100008.66
2022-11-09T08:04:52.139Z,100011.66
2022-11-09T08:07:18.570Z,100008.13
2022-11-09T08:09:45.203Z,100016.78
2022-11-09T08:12:11.617Z,100017.72
2022-11-09T08:14:38.098Z,100021.22
2022-11-09T08:17:04.514Z,100015.22
2022-11-09T08:19:30.962Z,100014.19
2022-11-09T08:21:57.862Z,100014.50
2022-11-09T08:24:24.391Z,100005.13
2022-11-09T08:26:50.838Z,100013.31
2022-11-09T08:29:17.458Z,100011.97
2022-11-09T08:31:43.998Z,100021.81
2022-11-09T08:34:12.961Z,100027.31
2022-11-09T08:36:39.479Z,100017.75
2022-11-09T08:39:06.024Z,100022.66
2022-11-09T08:41:33.744Z,100022.09
2022-11-09T08:44:00.202Z,100023.28
2022-11-09T08:46:26.635Z,100020.69
2022-11-09T08:48:53.065Z,100015.06
2022-11-09T08:51:19.593Z,100022.47
2022-11-09T08:53:46.042Z,100023.56
2022-11-09T08:56:12.925Z,100022.03
2022-11-09T08:58:39.737Z,100024.22
2022-11-09T09:01:12.263Z,100018.25
2022-11-09T09:03:41.978Z,100024.81
2022-11-09T09:06:08.833Z,100020.78
2022-11-09T09:08:35.364Z,100016.72
2022-11-09T09:11:06.047Z,100030.06
2022-11-09T09:13:35.037Z,100028.63
2022-11-09T09:16:10.942Z,100024.41
2022-11-09T09:18:37.601Z,100024.09
2022-11-09T09:21:08.648Z,100032.75
2022-11-09T09:23:35.465Z,100020.25
2022-11-09T09:26:01.917Z,100011.91
2022-11-09T09:28:28.464Z,100013.69
2022-11-09T09:30:58.626Z,100017.09
2022-11-09T09:33:25.588Z,100019.59
2022-11-09T09:35:52.368Z,100014.44
2022-11-09T09:38:19.032Z,100022.38
2022-11-09T09:41:06.737Z,100021.50
2022-11-09T09:43:43.226Z,100027.44
2022-11-09T09:46:27.951Z,100022.78
2022-11-09T09:49:03.728Z,100034.59
2022-11-09T09:51:43.019Z,100026.13
2022-11-09T09:54:18.075Z,100023.06
2022-11-09T09:56:46.849Z,100018.72
2022-11-09T09:59:27.044Z,100024.09
2022-11-09T10:01:53.537Z,100023.91
2022-11-09T10:04:22.547Z,100021.97
2022-11-09T10:07:07.623Z,100029.50
2022-11-09T10:09:55.232Z,100027.81
2022-11-09T10:13:11.241Z,100027.81
2022-11-09T10:15:54.389Z,100009.69
2022-11-09T10:18:38.032Z,100018.59
2022-11-09T10:21:44.005Z,100014.19
2022-11-09T10:24:31.584Z,100014.03
2022-11-09T10:27:00.073Z,100014.72
2022-11-09T10:29:37.668Z,100020.94
2022-11-09T10:32:24.117Z,100013.81
2022-11-09T10:35:02.741Z,100010.53
2022-11-09T10:37:38.882Z,100011.97
2022-11-09T10:40:08.007Z,100010.59
2022-11-09T10:42:34.780Z,100012.50
2022-11-09T10:45:12.229Z,100004.03
2022-11-09T10:47:49.954Z,99996.34
2022-11-09T10:50:34.648Z,100007.44
2022-11-09T10:53:19.703Z,100000.91
2022-11-09T10:55:50.172Z,100006.06
2022-11-09T10:58:25.346Z,99996.25
2022-11-09T11:01:17.685Z,100008.69
2022-11-09T11:03:45.617Z,100031.06
2022-11-09T11:06:25.925Z,100037.06
2022-11-09T11:09:13.846Z,100030.66
2022-11-09T11:11:40.642Z,100020.25
2022-11-09T11:14:26.895Z,100026.72
2022-11-09T11:16:53.882Z,100036.50
2022-11-09T11:19:37.035Z,100031.81
2022-11-09T11:22:12.553Z,100054.53
2022-11-09T11:24:51.391Z,100062.38
2022-11-09T11:27:43.205Z,100076.28
2022-11-09T11:30:36.139Z,100072.81
2022-11-09T11:33:12.343Z,100070.00
2022-11-09T11:35:41.989Z,100063.03
2022-11-09T11:38:14.482Z,100069.22
2022-11-09T11:40:45.748Z,100060.94
2022-11-09T11:43:18.570Z,100048.91
2022-11-09T11:46:02.601Z,100053.03
2022-11-09T11:48:49.621Z,100056.72
2022-11-09T11:51:46.229Z,100041.84
2022-11-09T11:54:34.475Z,100027.06
2022-11-09T11:57:19.894Z,100023.81
2022-11-09T11:59:54.992Z,100021.84
2022-11-09T12:02:57.331Z,100029.97
2022-11-09T12:06:02.626Z,100022.56
2022-11-09T12:08:36.608Z,100022.13
2022-11-09T12:11:12.444Z,100028.97
2022-11-09T12:14:03.861Z,100022.94
2022-11-09T12:16:39.767Z,100018.31
2022-11-09T12:19:36.677Z,100018.91
2022-11-09T12:22:13.194Z,100010.97
2022-11-09T12:24:56.841Z,100009.41
2022-11-09T12:27:44.507Z,100003.81
2022-11-09T12:30:30.859Z,100004.22
2022-11-09T12:33:03.538Z,100012.69
2022-11-09T12:35:30.416Z,100009.00
2022-11-09T12:38:12.754Z,100013.09
2022-11-09T12:40:52.080Z,100023.13
2022-11-09T12:43:24.100Z,100014.47
2022-11-09T12:45:52.847Z,100037.16
2022-11-09T12:48:26.736Z,100031.00
2022-11-09T12:50:53.780Z,100038.72
2022-11-09T12:53:24.563Z,100044.69
2022-11-09T12:56:17.258Z,100033.34
2022-11-09T12:58:44.323Z,100020.44
2022-11-09T13:01:14.473Z,100031.00
2022-11-09T13:03:57.031Z,100039.31
2022-11-09T13:06:27.805Z,100042.09
2022-11-09T13:09:15.883Z,100049.25
2022-11-09T13:11:47.299Z,100042.41
2022-11-09T13:14:22.982Z,100043.53
2022-11-09T13:16:51.176Z,100037.19
2022-11-09T13:19:41.661Z,100044.78
2022-11-09T13:24:52.221Z,100042.81
2022-11-09T13:27:41.444Z,100034.50
2022-11-09T13:30:30.735Z,100044.47
2022-11-09T13:33:06.225Z,100038.31
2022-11-09T13:35:42.056Z,100041.53
2022-11-09T13:38:18.607Z,100051.16
2022-11-09T13:40:57.194Z,100054.94
2022-11-09T13:43:38.899Z,100070.53
2022-11-09T13:46:14.416Z,100070.06
2022-11-09T13:48:48.837Z,100066.97
2022-11-09T13:51:19.363Z,100071.22
2022-11-09T13:53:57.758Z,100064.31
2022-11-09T13:56:30.122Z,100084.59
2022-11-09T13:59:03.486Z,100065.69
2022-11-09T14:01:45.296Z,100053.66
2022-11-09T14:04:37.718Z,100071.50
2022-11-09T14:07:25.241Z,100064.50
2022-11-09T14:10:01.896Z,100071.13
2022-11-09T14:12:46.769Z,100072.06
2022-11-09T14:15:13.154Z,100080.19
2022-11-09T14:17:52.580Z,100078.75
2022-11-09T14:20:43.150Z,100072.75
2022-11-09T14:23:18.866Z,100076.34
2022-11-09T14:25:46.108Z,100071.63
2022-11-09T14:28:30.984Z,100079.78
2022-11-09T14:30:57.655Z,100082.38
2022-11-09T14:33:26.842Z,100097.09
2022-11-09T14:35:57.730Z,100103.66
2022-11-09T14:38:28.057Z,100114.59
2022-11-09T14:40:55.512Z,100110.81
2022-11-09T14:43:44.779Z,100122.72
2022-11-09T14:46:20.785Z,100126.84
2022-11-09T14:48:59.183Z,100131.06
2022-11-09T14:51:35.464Z,100131.06
2022-11-09T14:54:05.671Z,100135.81
2022-11-09T14:56:33.897Z,100133.84
2022-11-09T14:59:02.156Z,100128.06
2022-11-09T15:01:28.826Z,100128.56
2022-11-09T15:04:27.523Z,100115.38
2022-11-09T15:07:00.695Z,100104.50
2022-11-09T15:09:41.759Z,100111.50
2022-11-09T15:12:19.481Z,100113.09
2022-11-09T15:14:58.620Z,100123.84
2022-11-09T15:17:32.290Z,100123.75
2022-11-09T15:20:20.579Z,100121.97
2022-11-09T15:22:50.179Z,100129.56
2022-11-09T15:25:25.773Z,100130.72
2022-11-09T15:28:21.413Z,100121.75
2022-11-09T15:30:54.135Z,100127.34
2022-11-09T15:33:26.634Z,100136.59
2022-11-09T15:35:56.124Z,100132.34
2022-11-09T15:38:39.137Z,100134.44
2022-11-09T15:41:25.295Z,100146.56
2022-11-09T15:43:52.107Z,100157.25
2022-11-09T15:46:27.467Z,100155.78
2022-11-09T15:48:57.956Z,100151.09
2022-11-09T15:51:24.507Z,100159.94
2022-11-09T15:53:51.008Z,100159.66
2022-11-09T15:56:23.244Z,100162.56
2022-11-09T15:58:52.336Z,100176.72
2022-11-09T16:01:19.290Z,100173.63
2022-11-09T16:03:45.807Z,100172.66
2022-11-09T16:06:18.948Z,100182.00
2022-11-09T16:08:49.720Z,100180.31
2022-11-09T16:11:16.278Z,100176.81
2022-11-09T16:13:42.718Z,100185.75
2022-11-09T16:16:11.575Z,100182.81
2022-11-09T16:18:38.385Z,100188.66
2022-11-09T16:21:13.526Z,100195.41
2022-11-09T16:23:40.261Z,100185.72
2022-11-09T16:26:14.696Z,100193.00
2022-11-09T16:28:41.541Z,100197.88
2022-11-09T16:31:08.015Z,100197.63
2022-11-09T16:33:35.069Z,100201.75
2022-11-09T16:36:05.791Z,100192.41
2022-11-09T16:38:38.919Z,100196.91
2022-11-09T16:41:05.949Z,100205.66
2022-11-09T16:43:36.294Z,100206.38
2022-11-09T16:46:02.825Z,100214.38
2022-11-09T16:48:32.784Z,100221.66
2022-11-09T16:50:59.416Z,100219.00
2022-11-09T16:53:27.243Z,100215.84
2022-11-09T16:55:54.474Z,100216.06
2022-11-09T16:58:21.310Z,100220.06
2022-11-09T17:01:09.684Z,100220.69
2022-11-09T17:03:36.270Z,100223.56
2022-11-09T17:06:03.463Z,100225.88
2022-11-09T17:08:30.156Z,100226.84
2022-11-09T17:10:56.607Z,100218.25
2022-11-09T17:13:23.048Z,100235.94
2022-11-09T17:15:52.550Z,100234.25
2022-11-09T17:18:19.378Z,100237.03
2022-11-09T17:20:48.772Z,100230.00
2022-11-09T17:23:18.145Z,100242.59
2022-11-09T17:25:58.958Z,100241.38
2022-11-09T17:28:26.162Z,100239.19
2022-11-09T17:30:52.694Z,100231.47
2022-11-09T17:33:19.775Z,100230.22
2022-11-09T17:35:46.297Z,100223.97
2022-11-09T17:38:12.805Z,100235.47
2022-11-09T17:40:39.381Z,100235.69
2022-11-09T17:43:05.976Z,100242.97
2022-11-09T17:45:34.648Z,100236.69
2022-11-09T17:48:01.720Z,100243.81
2022-11-09T17:50:28.151Z,100246.47
2022-11-09T17:52:54.940Z,100244.00
2022-11-09T17:55:21.434Z,100252.41
2022-11-09T17:57:48.599Z,100253.28
2022-11-09T18:00:15.593Z,100259.44
2022-11-09T18:02:42.121Z,100265.38
2022-11-09T18:05:09.066Z,100268.03
2022-11-09T18:07:35.476Z,100272.31
2022-11-09T18:10:01.906Z,100271.34
2022-11-09T18:12:28.453Z,100284.66
2022-11-09T18:14:54.936Z,100290.50
2022-11-09T18:17:21.414Z,100286.84
2022-11-09T18:19:48.377Z,100289.25
2022-11-09T18:22:14.801Z,100294.00
2022-11-09T18:24:41.325Z,100300.41
2022-11-09T18:27:07.767Z,100296.06
2022-11-09T18:29:34.208Z,100296.06
2022-11-09T18:32:00.671Z,100299.69
2022-11-09T18:34:27.153Z,100294.38
2022-11-09T18:36:53.896Z,100296.06
2022-11-09T18:39:20.367Z,100291.56
2022-11-09T18:41:46.857Z,100293.50
2022-11-09T18:44:13.418Z,100289.72
2022-11-09T18:46:39.880Z,100298.00
2022-11-09T18:49:10.114Z,100296.91
2022-11-09T18:51:39.634Z,100308.91
2022-11-09T18:54:06.060Z,100306.72
2022-11-09T18:56:32.593Z,100304.66
2022-11-09T18:58:59.917Z,100314.97
2022-11-09T19:01:29.680Z,100308.03
2022-11-09T19:03:59.818Z,100309.84
2022-11-09T19:06:26.972Z,100309.88
2022-11-09T19:09:12.074Z,100312.50
2022-11-09T19:11:38.580Z,100334.72
2022-11-09T19:14:05.038Z,100330.22
2022-11-09T19:16:31.570Z,100330.22
2022-11-09T19:18:58.261Z,100338.19
2022-11-09T19:21:24.749Z,100334.00
2022-11-09T19:23:51.956Z,100334.25
2022-11-09T19:26:19.050Z,100339.00
2022-11-09T19:28:45.554Z,100344.53
2022-11-09T19:31:14.343Z,100343.47
2022-11-09T19:33:40.789Z,100350.38
2022-11-09T19:36:29.285Z,100350.09
2022-11-09T19:39:05.483Z,100350.59
2022-11-09T19:41:32.028Z,100363.00
2022-11-09T19:43:59.307Z,100368.69
2022-11-09T19:46:31.022Z,100376.19
2022-11-09T19:48:57.967Z,100380.28
2022-11-09T19:51:24.504Z,100380.38
2022-11-09T19:53:52.813Z,100382.72
2022-11-09T19:56:20.815Z,100384.81
2022-11-09T19:58:51.788Z,100389.78
2022-11-09T20:01:18.896Z,100385.59
2022-11-09T20:03:48.722Z,100401.91
2022-11-09T20:06:15.197Z,100406.75
2022-11-09T20:08:41.618Z,100417.22
2022-11-09T20:11:10.963Z,100418.16
2022-11-09T20:13:38.397Z,100418.94
2022-11-09T20:16:07.061Z,100431.69
2022-11-09T20:18:38.575Z,100434.69
2022-11-09T20:21:08.464Z,100439.00
2022-11-09T20:23:34.895Z,100435.13
2022-11-09T20:26:09.267Z,100442.63
2022-11-09T20:28:36.132Z,100442.06
2022-11-09T20:31:14.502Z,100450.41
2022-11-09T20:33:41.259Z,100455.28
2022-11-09T20:36:08.238Z,100449.78
2022-11-09T20:38:34.844Z,100456.22
2022-11-09T20:41:03.991Z,100459.31
2022-11-09T20:43:30.893Z,100466.00
2022-11-09T20:46:03.563Z,100472.09
2022-11-09T20:48:52.989Z,100474.59
2022-11-09T20:51:19.421Z,100470.75
2022-11-09T20:53:47.128Z,100480.19
2022-11-09T20:56:14.419Z,100479.03
2022-11-09T20:58:41.448Z,100470.97
2022-11-09T21:01:11.640Z,100478.97
2022-11-09T21:03:38.750Z,100485.66
2022-11-09T21:06:06.987Z,100480.97
2022-11-09T21:08:34.105Z,100483.81
2022-11-09T21:11:01.943Z,100491.75
2022-11-09T21:13:28.905Z,100492.53
2022-11-09T21:15:55.454Z,100499.28
2022-11-09T21:18:22.529Z,100498.66
2022-11-09T21:20:49.291Z,100504.13
2022-11-09T21:23:15.709Z,100506.16
2022-11-09T21:26:02.248Z,100514.53
2022-11-09T21:28:47.639Z,100512.00
2022-11-09T21:31:14.380Z,100522.59
2022-11-09T21:33:41.269Z,100516.66
2022-11-09T21:36:14.080Z,100520.91
2022-11-09T21:38:40.533Z,100523.47
2022-11-09T21:41:27.047Z,100524.19
2022-11-09T21:43:56.546Z,100527.72
2022-11-09T21:46:24.182Z,100530.59
2022-11-09T21:48:50.977Z,100534.75
2022-11-09T21:51:17.507Z,100528.34
2022-11-09T21:53:43.946Z,100532.00
2022-11-09T21:56:11.208Z,100537.00
2022-11-09T21:58:37.655Z,100539.13
2022-11-09T22:01:09.431Z,100538.38
2022-11-09T22:03:37.413Z,100543.47
2022-11-09T22:06:04.378Z,100548.84
2022-11-09T22:08:31.072Z,100540.16
2022-11-09T22:11:08.931Z,100554.50
2022-11-09T22:13:54.662Z,100556.66
2022-11-09T22:16:23.374Z,100551.00
2022-11-09T22:19:08.692Z,100555.66
2022-11-09T22:21:35.417Z,100551.84
2022-11-09T22:24:02.910Z,100561.50
2022-11-09T22:26:31.555Z,100559.44
2022-11-09T22:28:58.481Z,100559.19
2022-11-09T22:31:25.697Z,100567.38
2022-11-09T22:33:52.976Z,100570.94
2022-11-09T22:36:20.365Z,100581.16
2022-11-09T22:38:47.350Z,100575.28
2022-11-09T22:41:15.203Z,100577.34
2022-11-09T22:43:43.556Z,100586.63
2022-11-09T22:46:17.253Z,100590.63
2022-11-09T22:48:44.748Z,100588.03
2022-11-09T22:51:12.903Z,100597.66
2022-11-09T22:53:39.718Z,100601.28
2022-11-09T22:56:06.523Z,100610.31
2022-11-09T22:58:33.049Z,100630.84
2022-11-09T23:01:08.804Z,100617.41
2022-11-09T23:03:35.796Z,100630.53
2022-11-09T23:06:22.012Z,100623.88
2022-11-09T23:08:48.816Z,100633.13
2022-11-09T23:11:18.244Z,100630.59
2022-11-09T23:13:47.851Z,100634.16
2022-11-09T23:16:14.274Z,100623.59
2022-11-09T23:18:56.245Z,100632.78
2022-11-09T23:21:33.407Z,100633.91
2022-11-09T23:24:03.017Z,100642.03
2022-11-09T23:26:30.112Z,100638.34
2022-11-09T23:28:56.844Z,100637.38
2022-11-09T23:31:24.406Z,100645.38
2022-11-09T23:33:54.398Z,100647.13
2022-11-09T23:36:22.356Z,100655.78
2022-11-09T23:38:49.313Z,100648.28
2022-11-09T23:41:17.002Z,100653.66
2022-11-09T23:43:48.648Z,100668.25
2022-11-09T23:46:16.874Z,100668.25
2022-11-09T23:48:43.422Z,100674.00
2022-11-09T23:51:10.577Z,100671.16
2022-11-09T23:53:37.627Z,100679.53
2022-11-09T23:56:09.635Z,100675.16
2022-11-09T23:58:36.382Z,100682.09
